Impacts TAF Board INFO
FOR SITUATIONAL AWARENESS. NOT TO BE USED FOR FLIGHT PLANNING PURPOSES.
IDs:

KLAX - Los Angeles Intl, CA, US

Issued at 1606 UTC 20 Jan 2018
Updated at 1706 UTC 20 Jan 2018
Potential Impact None Slight Moderate High
Time<<21/06Z 21/07Z 21/08Z 21/09Z 21/10Z 21/11Z 21/12Z 21/13Z 21/14Z 21/15Z 21/16Z 21/17Z 21/18Z>>
Type PRVL PRVL PRVL PRVL PRVL PRVL PRVL PRVL PRVL PRVL PRVL PRVL
VIS >6 >6 >6 >6 >6 >6 >6 >6 >6 >6 >6 >6
CIG -- -- -- -- -- -- -- -- -- -- -- --
Cover SKC SKC SKC SKC SKC SKC SKC SKC SKC SKC SKC SKC
FltCat VFR VFR VFR VFR VFR VFR VFR VFR VFR VFR VFR VFR
WX -- -- -- -- -- -- -- -- -- -- -- --
WDir 290 340 340 340 340 340 340 340 340 40 40 40
WSpd 15 10 10 10 10 10 10 10 10 6 6 6
WGst -- -- -- -- -- -- -- -- -- -- -- --

Raw TAF
KLAX 201606Z 2016/2118 34016G27KT P6SM SCT100 SCT180 BKN220
  FM202000 28022G32KT P6SM SKC
  FM210300 29015KT P6SM SKC
  FM210700 34010KT P6SM SKC
  FM211500 04006KT P6SM SKC


METAR Board
Radar Display
Forecast Discussion

FOR SITUATIONAL AWARENESS. NOT TO BE USED FOR FLIGHT PLANNING PURPOSES.